sensor_id;sensor_type;location;lat;lon;timestamp;P1;durP1;ratioP1;P2;durP2;ratioP2
32734;SDS011;19112;51.076;3.706;2022-09-09T00:04:33;10.05;;;2.92;;
32734;SDS011;19112;51.076;3.706;2022-09-09T00:21:48;10.40;;;2.75;;
32734;SDS011;19112;51.076;3.706;2022-09-09T00:24:43;10.98;;;2.80;;
32734;SDS011;19112;51.076;3.706;2022-09-09T00:27:26;11.88;;;2.75;;
32734;SDS011;19112;51.076;3.706;2022-09-09T00:32:48;12.98;;;2.63;;
32734;SDS011;19112;51.076;3.706;2022-09-09T00:35:23;15.93;;;2.95;;
32734;SDS011;19112;51.076;3.706;2022-09-09T00:38:05;10.98;;;2.88;;
32734;SDS011;19112;51.076;3.706;2022-09-09T00:40:47;9.80;;;2.65;;
32734;SDS011;19112;51.076;3.706;2022-09-09T00:43:28;11.85;;;2.85;;
32734;SDS011;19112;51.076;3.706;2022-09-09T00:48:54;10.20;;;2.90;;
32734;SDS011;19112;51.076;3.706;2022-09-09T00:51:45;12.88;;;2.72;;
32734;SDS011;19112;51.076;3.706;2022-09-09T00:54:40;10.52;;;2.70;;
32734;SDS011;19112;51.076;3.706;2022-09-09T00:57:34;9.82;;;2.50;;
32734;SDS011;19112;51.076;3.706;2022-09-09T01:14:48;12.25;;;2.55;;
32734;SDS011;19112;51.076;3.706;2022-09-09T01:17:21;10.00;;;2.55;;
32734;SDS011;19112;51.076;3.706;2022-09-09T01:20:12;8.85;;;2.50;;
32734;SDS011;19112;51.076;3.706;2022-09-09T01:26:13;13.05;;;2.85;;
32734;SDS011;19112;51.076;3.706;2022-09-09T01:28:45;15.95;;;2.55;;
32734;SDS011;19112;51.076;3.706;2022-09-09T01:31:18;8.57;;;2.50;;
32734;SDS011;19112;51.076;3.706;2022-09-09T01:34:04;13.43;;;2.30;;
32734;SDS011;19112;51.076;3.706;2022-09-09T01:36:41;13.13;;;2.72;;
32734;SDS011;19112;51.076;3.706;2022-09-09T01:39:33;12.82;;;2.53;;
32734;SDS011;19112;51.076;3.706;2022-09-09T01:42:00;12.80;;;2.30;;
32734;SDS011;19112;51.076;3.706;2022-09-09T01:44:28;10.48;;;2.58;;
32734;SDS011;19112;51.076;3.706;2022-09-09T01:46:55;14.10;;;2.65;;
32734;SDS011;19112;51.076;3.706;2022-09-09T01:49:21;13.73;;;2.55;;
32734;SDS011;19112;51.076;3.706;2022-09-09T01:51:49;10.27;;;2.58;;
32734;SDS011;19112;51.076;3.706;2022-09-09T01:54:18;11.15;;;2.38;;
32734;SDS011;19112;51.076;3.706;2022-09-09T02:02:24;13.82;;;2.80;;
32734;SDS011;19112;51.076;3.706;2022-09-09T02:05:03;10.43;;;2.90;;
32734;SDS011;19112;51.076;3.706;2022-09-09T02:08:03;19.75;;;3.25;;
32734;SDS011;19112;51.076;3.706;2022-09-09T02:10:40;14.50;;;2.75;;
32734;SDS011;19112;51.076;3.706;2022-09-09T02:13:22;10.10;;;2.72;;
32734;SDS011;19112;51.076;3.706;2022-09-09T02:18:57;11.25;;;2.53;;
32734;SDS011;19112;51.076;3.706;2022-09-09T02:21:24;11.23;;;2.67;;
32734;SDS011;19112;51.076;3.706;2022-09-09T02:23:53;11.73;;;2.78;;
32734;SDS011;19112;51.076;3.706;2022-09-09T02:26:21;13.23;;;2.88;;
32734;SDS011;19112;51.076;3.706;2022-09-09T02:28:49;9.95;;;2.58;;
32734;SDS011;19112;51.076;3.706;2022-09-09T02:31:18;13.93;;;2.88;;
32734;SDS011;19112;51.076;3.706;2022-09-09T02:33:49;10.13;;;2.60;;
32734;SDS011;19112;51.076;3.706;2022-09-09T02:36:21;8.68;;;2.58;;
32734;SDS011;19112;51.076;3.706;2022-09-09T02:38:51;15.32;;;2.53;;
32734;SDS011;19112;51.076;3.706;2022-09-09T02:41:30;16.10;;;2.75;;
32734;SDS011;19112;51.076;3.706;2022-09-09T02:44:02;9.00;;;2.70;;
32734;SDS011;19112;51.076;3.706;2022-09-09T02:49:19;13.05;;;2.97;;
32734;SDS011;19112;51.076;3.706;2022-09-09T02:52:04;9.75;;;2.78;;
32734;SDS011;19112;51.076;3.706;2022-09-09T02:54:43;13.38;;;2.80;;
32734;SDS011;19112;51.076;3.706;2022-09-09T02:57:11;15.50;;;3.22;;
32734;SDS011;19112;51.076;3.706;2022-09-09T03:02:09;15.18;;;2.90;;
32734;SDS011;19112;51.076;3.706;2022-09-09T03:04:37;14.93;;;2.95;;
32734;SDS011;19112;51.076;3.706;2022-09-09T03:07:04;21.33;;;2.92;;
32734;SDS011;19112;51.076;3.706;2022-09-09T03:09:31;16.85;;;2.78;;
32734;SDS011;19112;51.076;3.706;2022-09-09T03:11:57;19.83;;;3.33;;
32734;SDS011;19112;51.076;3.706;2022-09-09T03:14:24;14.60;;;3.17;;
32734;SDS011;19112;51.076;3.706;2022-09-09T03:16:53;18.70;;;3.83;;
32734;SDS011;19112;51.076;3.706;2022-09-09T03:19:20;16.83;;;3.33;;
32734;SDS011;19112;51.076;3.706;2022-09-09T03:21:46;19.23;;;3.80;;
32734;SDS011;19112;51.076;3.706;2022-09-09T03:24:12;13.68;;;3.17;;
32734;SDS011;19112;51.076;3.706;2022-09-09T03:26:39;12.52;;;3.13;;
32734;SDS011;19112;51.076;3.706;2022-09-09T03:29:06;19.20;;;3.90;;
32734;SDS011;19112;51.076;3.706;2022-09-09T03:31:33;18.55;;;4.00;;
32734;SDS011;19112;51.076;3.706;2022-09-09T03:34:00;13.90;;;3.28;;
32734;SDS011;19112;51.076;3.706;2022-09-09T03:36:27;18.48;;;3.78;;
32734;SDS011;19112;51.076;3.706;2022-09-09T03:38:53;18.77;;;3.60;;
32734;SDS011;19112;51.076;3.706;2022-09-09T03:41:20;14.38;;;3.40;;
32734;SDS011;19112;51.076;3.706;2022-09-09T03:43:49;15.50;;;3.03;;
32734;SDS011;19112;51.076;3.706;2022-09-09T03:46:19;17.02;;;3.42;;
32734;SDS011;19112;51.076;3.706;2022-09-09T03:48:49;16.15;;;3.15;;
32734;SDS011;19112;51.076;3.706;2022-09-09T03:51:15;16.00;;;2.90;;
32734;SDS011;19112;51.076;3.706;2022-09-09T03:53:41;20.70;;;3.45;;
32734;SDS011;19112;51.076;3.706;2022-09-09T03:56:08;18.98;;;3.67;;
32734;SDS011;19112;51.076;3.706;2022-09-09T03:58:34;17.30;;;3.42;;
32734;SDS011;19112;51.076;3.706;2022-09-09T04:01:11;18.30;;;3.72;;
32734;SDS011;19112;51.076;3.706;2022-09-09T04:03:39;15.93;;;2.95;;
32734;SDS011;19112;51.076;3.706;2022-09-09T04:06:06;26.38;;;4.07;;
32734;SDS011;19112;51.076;3.706;2022-09-09T04:08:34;23.02;;;5.78;;
32734;SDS011;19112;51.076;3.706;2022-09-09T04:11:01;21.65;;;3.40;;
32734;SDS011;19112;51.076;3.706;2022-09-09T04:13:31;17.08;;;3.42;;
32734;SDS011;19112;51.076;3.706;2022-09-09T04:16:03;16.50;;;3.75;;
32734;SDS011;19112;51.076;3.706;2022-09-09T04:18:29;21.58;;;3.58;;
32734;SDS011;19112;51.076;3.706;2022-09-09T04:20:55;23.38;;;4.63;;
32734;SDS011;19112;51.076;3.706;2022-09-09T04:23:22;18.55;;;3.45;;
32734;SDS011;19112;51.076;3.706;2022-09-09T04:25:51;19.00;;;4.20;;
32734;SDS011;19112;51.076;3.706;2022-09-09T04:28:18;20.25;;;3.95;;
32734;SDS011;19112;51.076;3.706;2022-09-09T04:30:46;19.17;;;4.35;;
32734;SDS011;19112;51.076;3.706;2022-09-09T04:33:13;17.35;;;3.47;;
32734;SDS011;19112;51.076;3.706;2022-09-09T04:35:43;19.75;;;3.85;;
32734;SDS011;19112;51.076;3.706;2022-09-09T04:38:14;15.40;;;3.40;;
32734;SDS011;19112;51.076;3.706;2022-09-09T04:40:48;17.73;;;3.70;;
32734;SDS011;19112;51.076;3.706;2022-09-09T04:43:16;26.05;;;3.90;;
32734;SDS011;19112;51.076;3.706;2022-09-09T04:45:44;21.98;;;3.72;;
32734;SDS011;19112;51.076;3.706;2022-09-09T04:48:13;20.13;;;3.65;;
32734;SDS011;19112;51.076;3.706;2022-09-09T04:50:39;16.35;;;4.03;;
32734;SDS011;19112;51.076;3.706;2022-09-09T04:53:06;18.27;;;3.67;;
32734;SDS011;19112;51.076;3.706;2022-09-09T04:55:32;17.58;;;3.65;;
32734;SDS011;19112;51.076;3.706;2022-09-09T04:58:03;21.27;;;3.78;;
32734;SDS011;19112;51.076;3.706;2022-09-09T05:00:31;19.90;;;3.90;;
32734;SDS011;19112;51.076;3.706;2022-09-09T05:03:01;15.57;;;3.67;;
32734;SDS011;19112;51.076;3.706;2022-09-09T05:05:29;20.80;;;4.40;;
32734;SDS011;19112;51.076;3.706;2022-09-09T05:08:00;17.60;;;4.00;;
32734;SDS011;19112;51.076;3.706;2022-09-09T05:10:28;22.10;;;4.63;;
32734;SDS011;19112;51.076;3.706;2022-09-09T05:12:54;19.52;;;4.30;;
32734;SDS011;19112;51.076;3.706;2022-09-09T05:15:20;16.25;;;4.10;;
32734;SDS011;19112;51.076;3.706;2022-09-09T05:17:46;21.13;;;4.60;;
32734;SDS011;19112;51.076;3.706;2022-09-09T05:20:13;20.20;;;5.05;;
32734;SDS011;19112;51.076;3.706;2022-09-09T05:22:38;15.20;;;4.22;;
32734;SDS011;19112;51.076;3.706;2022-09-09T05:25:05;16.77;;;4.25;;
32734;SDS011;19112;51.076;3.706;2022-09-09T05:27:33;16.95;;;4.10;;
32734;SDS011;19112;51.076;3.706;2022-09-09T05:29:59;27.50;;;6.13;;
32734;SDS011;19112;51.076;3.706;2022-09-09T05:32:25;17.90;;;4.47;;
32734;SDS011;19112;51.076;3.706;2022-09-09T05:34:51;24.65;;;4.32;;
32734;SDS011;19112;51.076;3.706;2022-09-09T05:37:17;22.17;;;4.47;;
32734;SDS011;19112;51.076;3.706;2022-09-09T05:39:43;22.35;;;4.38;;
32734;SDS011;19112;51.076;3.706;2022-09-09T05:42:09;20.27;;;4.20;;
32734;SDS011;19112;51.076;3.706;2022-09-09T05:44:35;18.90;;;5.78;;
32734;SDS011;19112;51.076;3.706;2022-09-09T05:47:02;27.67;;;5.40;;
32734;SDS011;19112;51.076;3.706;2022-09-09T05:49:28;21.55;;;5.57;;
32734;SDS011;19112;51.076;3.706;2022-09-09T05:51:54;22.65;;;4.95;;
32734;SDS011;19112;51.076;3.706;2022-09-09T05:54:19;16.98;;;4.43;;
32734;SDS011;19112;51.076;3.706;2022-09-09T05:56:45;21.17;;;4.20;;
32734;SDS011;19112;51.076;3.706;2022-09-09T05:59:12;22.60;;;4.82;;
32734;SDS011;19112;51.076;3.706;2022-09-09T06:01:37;20.52;;;4.35;;
32734;SDS011;19112;51.076;3.706;2022-09-09T06:04:05;15.02;;;4.10;;
32734;SDS011;19112;51.076;3.706;2022-09-09T06:06:33;18.08;;;4.80;;
32734;SDS011;19112;51.076;3.706;2022-09-09T06:09:01;17.38;;;4.07;;
32734;SDS011;19112;51.076;3.706;2022-09-09T06:11:32;16.83;;;4.20;;
32734;SDS011;19112;51.076;3.706;2022-09-09T06:13:58;17.30;;;5.05;;
32734;SDS011;19112;51.076;3.706;2022-09-09T06:16:25;22.45;;;4.80;;
32734;SDS011;19112;51.076;3.706;2022-09-09T06:18:53;23.63;;;4.63;;
32734;SDS011;19112;51.076;3.706;2022-09-09T06:21:28;16.05;;;4.22;;
32734;SDS011;19112;51.076;3.706;2022-09-09T06:23:57;25.90;;;4.88;;
32734;SDS011;19112;51.076;3.706;2022-09-09T06:26:28;19.75;;;4.80;;
32734;SDS011;19112;51.076;3.706;2022-09-09T06:31:24;22.88;;;4.40;;
32734;SDS011;19112;51.076;3.706;2022-09-09T06:33:55;23.95;;;4.40;;
32734;SDS011;19112;51.076;3.706;2022-09-09T06:36:24;22.40;;;4.57;;
32734;SDS011;19112;51.076;3.706;2022-09-09T06:38:52;30.55;;;4.50;;
32734;SDS011;19112;51.076;3.706;2022-09-09T06:41:20;17.63;;;5.70;;
32734;SDS011;19112;51.076;3.706;2022-09-09T06:43:49;19.00;;;4.15;;
32734;SDS011;19112;51.076;3.706;2022-09-09T06:46:15;22.35;;;4.78;;
32734;SDS011;19112;51.076;3.706;2022-09-09T06:48:44;24.05;;;5.25;;
32734;SDS011;19112;51.076;3.706;2022-09-09T06:51:17;23.60;;;4.72;;
32734;SDS011;19112;51.076;3.706;2022-09-09T06:53:46;18.38;;;4.75;;
32734;SDS011;19112;51.076;3.706;2022-09-09T06:56:31;22.95;;;4.07;;
32734;SDS011;19112;51.076;3.706;2022-09-09T06:59:01;18.33;;;3.92;;
32734;SDS011;19112;51.076;3.706;2022-09-09T07:01:30;21.48;;;4.68;;
32734;SDS011;19112;51.076;3.706;2022-09-09T07:03:59;25.73;;;4.78;;
32734;SDS011;19112;51.076;3.706;2022-09-09T07:06:30;17.17;;;4.63;;
32734;SDS011;19112;51.076;3.706;2022-09-09T07:09:03;18.83;;;3.75;;
32734;SDS011;19112;51.076;3.706;2022-09-09T07:11:43;23.00;;;4.00;;
32734;SDS011;19112;51.076;3.706;2022-09-09T07:14:13;17.45;;;4.30;;
32734;SDS011;19112;51.076;3.706;2022-09-09T07:16:43;17.33;;;3.83;;
32734;SDS011;19112;51.076;3.706;2022-09-09T07:19:11;18.20;;;3.92;;
32734;SDS011;19112;51.076;3.706;2022-09-09T07:21:37;20.05;;;3.83;;
32734;SDS011;19112;51.076;3.706;2022-09-09T07:24:05;19.02;;;3.28;;
32734;SDS011;19112;51.076;3.706;2022-09-09T07:26:35;14.43;;;3.75;;
32734;SDS011;19112;51.076;3.706;2022-09-09T07:29:02;13.73;;;3.75;;
32734;SDS011;19112;51.076;3.706;2022-09-09T07:31:29;15.57;;;3.63;;
32734;SDS011;19112;51.076;3.706;2022-09-09T07:33:58;16.77;;;3.85;;
32734;SDS011;19112;51.076;3.706;2022-09-09T07:36:28;20.73;;;4.72;;
32734;SDS011;19112;51.076;3.706;2022-09-09T07:39:04;15.23;;;3.55;;
32734;SDS011;19112;51.076;3.706;2022-09-09T07:41:38;18.45;;;3.83;;
32734;SDS011;19112;51.076;3.706;2022-09-09T07:44:09;17.42;;;3.60;;
32734;SDS011;19112;51.076;3.706;2022-09-09T07:46:38;17.63;;;3.13;;
32734;SDS011;19112;51.076;3.706;2022-09-09T07:49:05;12.13;;;2.95;;
32734;SDS011;19112;51.076;3.706;2022-09-09T07:51:33;14.55;;;3.72;;
32734;SDS011;19112;51.076;3.706;2022-09-09T07:54:02;17.08;;;3.05;;
32734;SDS011;19112;51.076;3.706;2022-09-09T07:59:01;13.38;;;3.03;;
32734;SDS011;19112;51.076;3.706;2022-09-09T08:01:33;17.23;;;3.30;;
32734;SDS011;19112;51.076;3.706;2022-09-09T08:04:04;11.98;;;3.10;;
32734;SDS011;19112;51.076;3.706;2022-09-09T08:06:37;16.63;;;3.75;;
32734;SDS011;19112;51.076;3.706;2022-09-09T08:09:06;18.08;;;3.83;;
32734;SDS011;19112;51.076;3.706;2022-09-09T08:11:33;19.17;;;3.40;;
32734;SDS011;19112;51.076;3.706;2022-09-09T08:14:01;17.38;;;3.30;;
32734;SDS011;19112;51.076;3.706;2022-09-09T08:16:29;11.23;;;2.75;;
32734;SDS011;19112;51.076;3.706;2022-09-09T08:18:57;16.00;;;3.45;;
32734;SDS011;19112;51.076;3.706;2022-09-09T08:21:25;15.82;;;3.17;;
32734;SDS011;19112;51.076;3.706;2022-09-09T08:23:54;15.07;;;3.03;;
32734;SDS011;19112;51.076;3.706;2022-09-09T08:26:32;14.07;;;3.60;;
32734;SDS011;19112;51.076;3.706;2022-09-09T08:29:01;16.08;;;3.83;;
32734;SDS011;19112;51.076;3.706;2022-09-09T08:31:36;16.58;;;3.42;;
32734;SDS011;19112;51.076;3.706;2022-09-09T08:34:09;16.45;;;4.15;;
32734;SDS011;19112;51.076;3.706;2022-09-09T08:36:36;13.50;;;3.85;;
32734;SDS011;19112;51.076;3.706;2022-09-09T08:39:07;14.45;;;3.22;;
32734;SDS011;19112;51.076;3.706;2022-09-09T08:44:38;11.30;;;3.22;;
32734;SDS011;19112;51.076;3.706;2022-09-09T08:50:19;11.65;;;3.00;;
32734;SDS011;19112;51.076;3.706;2022-09-09T08:55:51;17.33;;;3.30;;
32734;SDS011;19112;51.076;3.706;2022-09-09T08:58:32;12.52;;;2.88;;
32734;SDS011;19112;51.076;3.706;2022-09-09T09:07:09;13.15;;;2.88;;
32734;SDS011;19112;51.076;3.706;2022-09-09T09:12:50;15.02;;;3.30;;
32734;SDS011;19112;51.076;3.706;2022-09-09T09:15:18;10.07;;;3.08;;
32734;SDS011;19112;51.076;3.706;2022-09-09T09:17:49;12.47;;;3.60;;
32734;SDS011;19112;51.076;3.706;2022-09-09T09:20:16;13.57;;;2.92;;
32734;SDS011;19112;51.076;3.706;2022-09-09T09:22:51;15.45;;;3.25;;
32734;SDS011;19112;51.076;3.706;2022-09-09T09:25:21;11.93;;;2.92;;
32734;SDS011;19112;51.076;3.706;2022-09-09T09:31:08;10.98;;;2.83;;
32734;SDS011;19112;51.076;3.706;2022-09-09T09:33:47;15.32;;;2.97;;
32734;SDS011;19112;51.076;3.706;2022-09-09T09:36:24;10.35;;;2.50;;
32734;SDS011;19112;51.076;3.706;2022-09-09T09:39:22;14.80;;;2.67;;
32734;SDS011;19112;51.076;3.706;2022-09-09T09:41:53;10.85;;;2.72;;
32734;SDS011;19112;51.076;3.706;2022-09-09T09:44:29;11.00;;;2.88;;
32734;SDS011;19112;51.076;3.706;2022-09-09T09:47:13;14.70;;;2.90;;
32734;SDS011;19112;51.076;3.706;2022-09-09T09:49:51;13.45;;;2.50;;
32734;SDS011;19112;51.076;3.706;2022-09-09T09:52:31;10.13;;;2.55;;
32734;SDS011;19112;51.076;3.706;2022-09-09T09:54:59;15.38;;;2.85;;
32734;SDS011;19112;51.076;3.706;2022-09-09T09:57:32;11.93;;;2.72;;
32734;SDS011;19112;51.076;3.706;2022-09-09T10:02:39;12.65;;;2.80;;
32734;SDS011;19112;51.076;3.706;2022-09-09T10:08:05;11.23;;;2.78;;
32734;SDS011;19112;51.076;3.706;2022-09-09T10:10:40;9.93;;;3.03;;
32734;SDS011;19112;51.076;3.706;2022-09-09T10:16:45;9.23;;;2.30;;
32734;SDS011;19112;51.076;3.706;2022-09-09T10:19:20;8.80;;;2.53;;
32734;SDS011;19112;51.076;3.706;2022-09-09T10:23:02;9.98;;;2.50;;
32734;SDS011;19112;51.076;3.706;2022-09-09T10:30:56;11.40;;;2.28;;
32734;SDS011;19112;51.076;3.706;2022-09-09T10:34:01;10.10;;;2.58;;
32734;SDS011;19112;51.076;3.706;2022-09-09T10:37:00;12.00;;;2.53;;
32734;SDS011;19112;51.076;3.706;2022-09-09T10:39:41;8.60;;;2.22;;
32734;SDS011;19112;51.076;3.706;2022-09-09T10:42:14;12.50;;;2.20;;
32734;SDS011;19112;51.076;3.706;2022-09-09T10:56:10;8.77;;;2.10;;
32734;SDS011;19112;51.076;3.706;2022-09-09T11:01:28;10.52;;;2.45;;
32734;SDS011;19112;51.076;3.706;2022-09-09T11:06:53;13.10;;;2.28;;
32734;SDS011;19112;51.076;3.706;2022-09-09T11:09:28;12.57;;;2.45;;
32734;SDS011;19112;51.076;3.706;2022-09-09T11:12:01;7.57;;;1.92;;
32734;SDS011;19112;51.076;3.706;2022-09-09T11:17:38;10.85;;;1.90;;
32734;SDS011;19112;51.076;3.706;2022-09-09T11:20:11;7.82;;;1.92;;
32734;SDS011;19112;51.076;3.706;2022-09-09T11:25:41;9.15;;;2.15;;
32734;SDS011;19112;51.076;3.706;2022-09-09T11:37:17;7.70;;;1.88;;
32734;SDS011;19112;51.076;3.706;2022-09-09T11:42:47;7.78;;;2.00;;
32734;SDS011;19112;51.076;3.706;2022-09-09T11:48:02;9.73;;;1.88;;
32734;SDS011;19112;51.076;3.706;2022-09-09T11:50:33;7.57;;;1.95;;
32734;SDS011;19112;51.076;3.706;2022-09-09T11:53:21;7.25;;;1.25;;
32734;SDS011;19112;51.076;3.706;2022-09-09T11:55:48;6.95;;;1.65;;
32734;SDS011;19112;51.076;3.706;2022-09-09T12:02:16;5.47;;;1.45;;
32734;SDS011;19112;51.076;3.706;2022-09-09T12:04:54;7.35;;;1.48;;
32734;SDS011;19112;51.076;3.706;2022-09-09T12:07:40;10.13;;;1.65;;
32734;SDS011;19112;51.076;3.706;2022-09-09T12:10:30;8.82;;;2.03;;
32734;SDS011;19112;51.076;3.706;2022-09-09T12:13:34;10.63;;;1.80;;
32734;SDS011;19112;51.076;3.706;2022-09-09T12:15:54;4.45;;;1.75;;
32734;SDS011;19112;51.076;3.706;2022-09-09T12:24:27;6.03;;;1.55;;
32734;SDS011;19112;51.076;3.706;2022-09-09T12:27:05;8.43;;;2.10;;
32734;SDS011;19112;51.076;3.706;2022-09-09T12:32:22;11.55;;;2.05;;
32734;SDS011;19112;51.076;3.706;2022-09-09T12:34:54;9.68;;;1.55;;
32734;SDS011;19112;51.076;3.706;2022-09-09T12:40:22;9.50;;;2.47;;
32734;SDS011;19112;51.076;3.706;2022-09-09T12:42:49;5.55;;;1.80;;
32734;SDS011;19112;51.076;3.706;2022-09-09T12:45:17;6.38;;;1.95;;
32734;SDS011;19112;51.076;3.706;2022-09-09T12:48:07;8.98;;;1.98;;
32734;SDS011;19112;51.076;3.706;2022-09-09T12:50:37;7.85;;;1.80;;
32734;SDS011;19112;51.076;3.706;2022-09-09T12:53:22;5.63;;;1.70;;
32734;SDS011;19112;51.076;3.706;2022-09-09T12:56:05;6.85;;;1.60;;
32734;SDS011;19112;51.076;3.706;2022-09-09T12:58:35;8.82;;;1.88;;
32734;SDS011;19112;51.076;3.706;2022-09-09T13:01:03;4.70;;;1.55;;
32734;SDS011;19112;51.076;3.706;2022-09-09T13:03:30;7.72;;;1.80;;
32734;SDS011;19112;51.076;3.706;2022-09-09T13:05:59;5.30;;;1.83;;
32734;SDS011;19112;51.076;3.706;2022-09-09T13:08:39;11.52;;;2.42;;
32734;SDS011;19112;51.076;3.706;2022-09-09T13:12:06;8.20;;;2.10;;
32734;SDS011;19112;51.076;3.706;2022-09-09T13:14:18;3.35;;;1.73;;
32734;SDS011;19112;51.076;3.706;2022-09-09T13:16:59;7.10;;;2.50;;
32734;SDS011;19112;51.076;3.706;2022-09-09T13:19:37;8.88;;;2.47;;
32734;SDS011;19112;51.076;3.706;2022-09-09T13:22:14;8.45;;;2.28;;
32734;SDS011;19112;51.076;3.706;2022-09-09T13:25:01;8.85;;;2.30;;
32734;SDS011;19112;51.076;3.706;2022-09-09T13:35:34;9.30;;;1.85;;
32734;SDS011;19112;51.076;3.706;2022-09-09T13:38:12;7.22;;;1.60;;
32734;SDS011;19112;51.076;3.706;2022-09-09T13:40:40;7.38;;;2.20;;
32734;SDS011;19112;51.076;3.706;2022-09-09T13:43:20;5.97;;;2.28;;
32734;SDS011;19112;51.076;3.706;2022-09-09T13:46:01;2.50;;;1.35;;
32734;SDS011;19112;51.076;3.706;2022-09-09T13:51:03;9.98;;;2.05;;
32734;SDS011;19112;51.076;3.706;2022-09-09T13:53:30;8.43;;;2.22;;
32734;SDS011;19112;51.076;3.706;2022-09-09T13:55:56;10.68;;;1.95;;
32734;SDS011;19112;51.076;3.706;2022-09-09T13:58:23;4.68;;;1.52;;
32734;SDS011;19112;51.076;3.706;2022-09-09T14:00:50;7.55;;;1.88;;
32734;SDS011;19112;51.076;3.706;2022-09-09T14:03:18;6.80;;;1.67;;
32734;SDS011;19112;51.076;3.706;2022-09-09T14:05:44;6.53;;;1.77;;
32734;SDS011;19112;51.076;3.706;2022-09-09T14:08:14;5.78;;;2.00;;
32734;SDS011;19112;51.076;3.706;2022-09-09T14:10:48;7.72;;;2.35;;
32734;SDS011;19112;51.076;3.706;2022-09-09T14:13:13;6.00;;;1.80;;
32734;SDS011;19112;51.076;3.706;2022-09-09T14:15:40;7.05;;;1.83;;
32734;SDS011;19112;51.076;3.706;2022-09-09T14:18:08;7.10;;;1.90;;
32734;SDS011;19112;51.076;3.706;2022-09-09T14:20:38;7.75;;;1.75;;
32734;SDS011;19112;51.076;3.706;2022-09-09T14:23:03;6.78;;;1.70;;
32734;SDS011;19112;51.076;3.706;2022-09-09T14:25:30;6.28;;;1.77;;
32734;SDS011;19112;51.076;3.706;2022-09-09T14:27:56;7.32;;;1.85;;
32734;SDS011;19112;51.076;3.706;2022-09-09T14:30:22;7.07;;;1.60;;
32734;SDS011;19112;51.076;3.706;2022-09-09T14:32:48;6.30;;;1.90;;
32734;SDS011;19112;51.076;3.706;2022-09-09T14:35:13;5.63;;;1.55;;
32734;SDS011;19112;51.076;3.706;2022-09-09T14:37:39;6.20;;;1.77;;
32734;SDS011;19112;51.076;3.706;2022-09-09T14:40:05;4.93;;;2.20;;
32734;SDS011;19112;51.076;3.706;2022-09-09T14:42:32;8.20;;;2.00;;
32734;SDS011;19112;51.076;3.706;2022-09-09T14:44:59;6.22;;;1.63;;
32734;SDS011;19112;51.076;3.706;2022-09-09T14:47:24;13.10;;;2.75;;
32734;SDS011;19112;51.076;3.706;2022-09-09T14:49:51;7.95;;;1.75;;
32734;SDS011;19112;51.076;3.706;2022-09-09T14:52:18;5.72;;;2.28;;
32734;SDS011;19112;51.076;3.706;2022-09-09T14:54:43;11.23;;;2.10;;
32734;SDS011;19112;51.076;3.706;2022-09-09T14:57:09;11.13;;;2.35;;
32734;SDS011;19112;51.076;3.706;2022-09-09T14:59:35;6.82;;;2.65;;
32734;SDS011;19112;51.076;3.706;2022-09-09T15:02:01;9.95;;;2.70;;
32734;SDS011;19112;51.076;3.706;2022-09-09T15:04:29;11.95;;;3.28;;
32734;SDS011;19112;51.076;3.706;2022-09-09T15:06:54;7.15;;;3.20;;
32734;SDS011;19112;51.076;3.706;2022-09-09T15:09:20;12.07;;;3.22;;
32734;SDS011;19112;51.076;3.706;2022-09-09T15:11:46;10.98;;;3.28;;
32734;SDS011;19112;51.076;3.706;2022-09-09T15:14:12;13.38;;;3.47;;
32734;SDS011;19112;51.076;3.706;2022-09-09T15:16:38;13.25;;;3.65;;
32734;SDS011;19112;51.076;3.706;2022-09-09T15:19:05;11.60;;;4.05;;
32734;SDS011;19112;51.076;3.706;2022-09-09T15:21:32;13.63;;;4.13;;
32734;SDS011;19112;51.076;3.706;2022-09-09T15:24:00;15.88;;;5.13;;
32734;SDS011;19112;51.076;3.706;2022-09-09T15:26:26;11.75;;;4.28;;
32734;SDS011;19112;51.076;3.706;2022-09-09T15:28:54;12.73;;;4.78;;
32734;SDS011;19112;51.076;3.706;2022-09-09T15:31:25;14.15;;;3.92;;
32734;SDS011;19112;51.076;3.706;2022-09-09T15:34:05;16.60;;;4.35;;
32734;SDS011;19112;51.076;3.706;2022-09-09T15:36:33;8.50;;;3.63;;
32734;SDS011;19112;51.076;3.706;2022-09-09T15:39:04;12.13;;;4.20;;
32734;SDS011;19112;51.076;3.706;2022-09-09T15:41:34;13.07;;;4.45;;
32734;SDS011;19112;51.076;3.706;2022-09-09T15:44:00;13.10;;;3.80;;
32734;SDS011;19112;51.076;3.706;2022-09-09T15:46:28;11.43;;;3.80;;
32734;SDS011;19112;51.076;3.706;2022-09-09T15:49:02;11.57;;;4.13;;
32734;SDS011;19112;51.076;3.706;2022-09-09T15:51:51;14.13;;;4.20;;
32734;SDS011;19112;51.076;3.706;2022-09-09T15:54:22;10.50;;;4.82;;
32734;SDS011;19112;51.076;3.706;2022-09-09T15:56:52;16.98;;;4.68;;
32734;SDS011;19112;51.076;3.706;2022-09-09T15:59:21;10.13;;;3.70;;
32734;SDS011;19112;51.076;3.706;2022-09-09T16:01:48;12.32;;;3.60;;
32734;SDS011;19112;51.076;3.706;2022-09-09T16:04:16;11.13;;;3.15;;
32734;SDS011;19112;51.076;3.706;2022-09-09T16:06:48;10.25;;;3.47;;
32734;SDS011;19112;51.076;3.706;2022-09-09T16:09:20;8.67;;;3.17;;
32734;SDS011;19112;51.076;3.706;2022-09-09T16:11:46;8.68;;;2.75;;
32734;SDS011;19112;51.076;3.706;2022-09-09T16:14:13;8.82;;;2.97;;
32734;SDS011;19112;51.076;3.706;2022-09-09T16:16:40;7.15;;;2.38;;
32734;SDS011;19112;51.076;3.706;2022-09-09T16:19:08;6.07;;;2.40;;
32734;SDS011;19112;51.076;3.706;2022-09-09T16:21:44;8.18;;;2.40;;
32734;SDS011;19112;51.076;3.706;2022-09-09T16:24:13;10.50;;;2.80;;
32734;SDS011;19112;51.076;3.706;2022-09-09T16:26:43;6.20;;;2.40;;
32734;SDS011;19112;51.076;3.706;2022-09-09T16:29:12;7.28;;;2.22;;
32734;SDS011;19112;51.076;3.706;2022-09-09T16:31:39;8.65;;;2.70;;
32734;SDS011;19112;51.076;3.706;2022-09-09T16:34:05;6.85;;;2.90;;
32734;SDS011;19112;51.076;3.706;2022-09-09T16:36:33;6.82;;;2.60;;
32734;SDS011;19112;51.076;3.706;2022-09-09T16:39:03;7.88;;;2.70;;
32734;SDS011;19112;51.076;3.706;2022-09-09T16:41:31;11.77;;;2.80;;
32734;SDS011;19112;51.076;3.706;2022-09-09T16:43:58;10.20;;;2.60;;
32734;SDS011;19112;51.076;3.706;2022-09-09T16:46:27;8.48;;;2.70;;
32734;SDS011;19112;51.076;3.706;2022-09-09T16:48:58;8.07;;;2.63;;
32734;SDS011;19112;51.076;3.706;2022-09-09T16:51:26;17.15;;;3.30;;
32734;SDS011;19112;51.076;3.706;2022-09-09T16:56:26;12.02;;;3.85;;
32734;SDS011;19112;51.076;3.706;2022-09-09T16:58:55;12.40;;;3.10;;
32734;SDS011;19112;51.076;3.706;2022-09-09T17:01:23;13.05;;;3.15;;
32734;SDS011;19112;51.076;3.706;2022-09-09T17:03:54;9.40;;;3.33;;
32734;SDS011;19112;51.076;3.706;2022-09-09T17:06:25;14.68;;;3.45;;
32734;SDS011;19112;51.076;3.706;2022-09-09T17:08:54;13.57;;;3.20;;
32734;SDS011;19112;51.076;3.706;2022-09-09T17:11:26;10.60;;;3.17;;
32734;SDS011;19112;51.076;3.706;2022-09-09T17:13:54;11.43;;;3.53;;
32734;SDS011;19112;51.076;3.706;2022-09-09T17:16:21;22.58;;;3.95;;
32734;SDS011;19112;51.076;3.706;2022-09-09T17:18:49;13.65;;;3.78;;
32734;SDS011;19112;51.076;3.706;2022-09-09T17:21:17;13.35;;;3.72;;
32734;SDS011;19112;51.076;3.706;2022-09-09T17:23:46;11.57;;;3.83;;
32734;SDS011;19112;51.076;3.706;2022-09-09T17:26:14;10.23;;;3.60;;
32734;SDS011;19112;51.076;3.706;2022-09-09T17:28:43;15.05;;;3.22;;
32734;SDS011;19112;51.076;3.706;2022-09-09T17:31:10;12.75;;;3.00;;
32734;SDS011;19112;51.076;3.706;2022-09-09T17:33:41;14.30;;;3.30;;
32734;SDS011;19112;51.076;3.706;2022-09-09T17:36:12;14.93;;;3.20;;
32734;SDS011;19112;51.076;3.706;2022-09-09T17:38:41;10.40;;;2.67;;
32734;SDS011;19112;51.076;3.706;2022-09-09T17:41:09;10.15;;;2.72;;
32734;SDS011;19112;51.076;3.706;2022-09-09T17:43:46;17.88;;;3.08;;
32734;SDS011;19112;51.076;3.706;2022-09-09T17:46:13;10.10;;;2.50;;